aviador You're here:

KAIB Decoded Metar

in
Report Time2018-01-17 17:55:00
UTC Time2018-01-17 18:15:59
Flight Rules vfr VFR
Wind340° at 03 kt
W.Decomp.*RWY 29: 1.9 kt HW 2.3 kt RCW
RWY 05: 1.0 kt HW 2.8 kt LCW
W.Rank340° ranks 13
Current wind is below 340° avg. (5.5)
Visibility9999 m
Phenomena:N/A
Clouds:N/A
Expected CloudBase > 4,000 ft AGL from Temp-Dew spread
CeilingNone
Temp00°C
Dew Point-10°C (47% RH)
AAT-4.1°C
QNH1031 hPa
Raw Report
KAIB 171755Z AUTO 34003KT 10SM CLR 00/M10 A3045 RMK AO2=

Extra information for KAIB:More info

Social comments